Time;durP1;ratioP1;P1;durP2;ratioP2;P2;SDS_P1;SDS_P2;PMS_P1;PMS_P2;Temp;Humidity;BMP_temperature;BMP_pressure;BME280_temperature;BME280_humidity;BME280_pressure;Samples;Min_cycle;Max_cycle;Signal;HPM_P1;HPM_P2
2023/08/21 00:00:38;;;;;;;7.20;6.50;;;;;;;23.42;100.00;97090.25;5041432;28;20203;-64
2023/08/21 00:03:06;;;;;;;7.88;6.43;;;;;;;23.42;100.00;97082.16;5041689;28;20208;-67
2023/08/21 00:05:32;;;;;;;7.18;6.47;;;;;;;23.40;100.00;97084.22;5041785;28;20200;-63
2023/08/21 00:07:59;;;;;;;6.95;6.30;;;;;;;23.39;100.00;97077.16;5041566;28;20211;-66
2023/08/21 00:10:25;;;;;;;7.28;6.65;;;;;;;23.27;100.00;97082.41;5041665;28;20231;-65
2023/08/21 00:12:52;;;;;;;7.40;6.63;;;;;;;23.23;100.00;97080.34;5041568;28;20212;-65
2023/08/21 00:15:18;;;;;;;9.23;6.40;;;;;;;23.17;100.00;97071.19;5041300;28;20199;-64
2023/08/21 00:17:46;;;;;;;7.65;6.85;;;;;;;23.13;100.00;97071.84;5042287;28;20207;-63
2023/08/21 00:20:13;;;;;;;7.50;6.80;;;;;;;23.13;100.00;97071.84;5041584;28;20222;-62
2023/08/21 00:22:39;;;;;;;8.07;6.55;;;;;;;23.10;100.00;97072.25;5042320;28;20216;-62
2023/08/21 00:25:07;;;;;;;8.30;6.75;;;;;;;23.06;100.00;97071.03;5041092;28;20196;-65
2023/08/21 00:27:34;;;;;;;8.93;6.68;;;;;;;23.05;100.00;97080.16;5040360;28;20539;-63
2023/08/21 00:30:01;;;;;;;9.20;6.85;;;;;;;23.01;100.00;97068.13;5041249;28;20223;-64
2023/08/21 00:32:28;;;;;;;8.07;7.22;;;;;;;22.97;100.00;97077.69;5040215;28;20208;-63
2023/08/21 00:34:56;;;;;;;7.28;6.68;;;;;;;22.95;100.00;97079.78;5041047;28;20210;-63
2023/08/21 00:37:22;;;;;;;7.60;6.82;;;;;;;22.95;100.00;97074.38;5041382;28;21017;-63
2023/08/21 00:39:49;;;;;;;8.02;6.50;;;;;;;22.91;100.00;97067.75;5041582;28;20543;-64
2023/08/21 00:42:15;;;;;;;7.50;6.78;;;;;;;22.88;100.00;97070.84;5041153;28;20218;-63
2023/08/21 00:44:42;;;;;;;7.75;6.93;;;;;;;22.86;100.00;97060.25;5040990;28;20206;-64
2023/08/21 00:47:08;;;;;;;8.02;7.20;;;;;;;22.82;100.00;97064.41;5041310;28;20203;-62
2023/08/21 00:49:35;;;;;;;7.30;6.60;;;;;;;22.79;100.00;97068.38;5040806;28;20227;-63
2023/08/21 00:52:03;;;;;;;7.68;6.95;;;;;;;22.76;100.00;97063.41;5040879;28;20215;-64
2023/08/21 00:54:30;;;;;;;7.70;7.03;;;;;;;22.77;100.00;97061.53;5040786;28;20199;-63
2023/08/21 00:56:57;;;;;;;9.25;6.57;;;;;;;22.74;100.00;97061.97;5040413;28;20208;-65
2023/08/21 00:59:23;;;;;;;7.50;6.90;;;;;;;22.72;100.00;97064.00;5040822;28;20293;-64
2023/08/21 01:01:50;;;;;;;7.50;6.47;;;;;;;22.75;100.00;97072.53;5040992;28;20212;-65
2023/08/21 01:04:17;;;;;;;7.90;7.15;;;;;;;22.72;100.00;97069.41;5023739;28;20702;-62
2023/08/21 01:06:43;;;;;;;7.65;6.93;;;;;;;22.68;100.00;97069.00;5041546;28;20517;-65
2023/08/21 01:09:16;;;;;;;7.47;6.78;;;;;;;22.66;100.00;97071.06;5041844;28;20353;-62
2023/08/21 01:11:47;;;;;;;8.02;7.05;;;;;;;22.67;100.00;97072.72;5039850;28;20207;-63
2023/08/21 01:14:21;;;;;;;8.43;6.85;;;;;;;22.64;100.00;97075.81;5041403;28;20226;-63
2023/08/21 01:16:48;;;;;;;8.27;7.18;;;;;;;22.64;100.00;97078.50;5041556;28;20214;-64
2023/08/21 01:19:27;;;;;;;7.32;6.70;;;;;;;22.63;100.00;97079.56;5041554;28;20214;-62
2023/08/21 01:21:54;;;;;;;7.97;6.90;;;;;;;22.59;100.00;97081.00;5041053;28;20200;-62
2023/08/21 01:24:22;;;;;;;7.13;6.53;;;;;;;22.54;100.00;97083.47;5040290;28;20522;-64
2023/08/21 01:26:48;;;;;;;8.68;6.97;;;;;;;22.50;100.00;97087.63;5040026;28;20216;-64
2023/08/21 01:29:15;;;;;;;7.65;6.95;;;;;;;22.47;100.00;97084.50;5041024;28;20234;-62
2023/08/21 01:31:46;;;;;;;7.85;7.10;;;;;;;22.48;100.00;97086.19;5041331;28;20215;-64
2023/08/21 01:34:14;;;;;;;9.88;7.25;;;;;;;22.46;100.00;97086.38;5041168;28;20207;-64
2023/08/21 01:36:41;;;;;;;8.90;7.20;;;;;;;22.44;100.00;97091.16;5041138;28;20207;-63
2023/08/21 01:39:07;;;;;;;8.10;7.32;;;;;;;22.41;100.00;97086.19;5024241;28;20216;-64
2023/08/21 01:41:35;;;;;;;8.43;7.50;;;;;;;22.40;100.00;97094.47;5043912;28;20203;-63
2023/08/21 01:44:02;;;;;;;9.00;7.50;;;;;;;22.34;100.00;97090.75;5044480;28;20237;-65
2023/08/21 01:46:28;;;;;;;7.63;6.93;;;;;;;22.31;100.00;97093.84;5044805;28;20212;-62
2023/08/21 01:48:56;;;;;;;9.13;7.20;;;;;;;22.26;100.00;97091.75;5043650;28;20196;-65
2023/08/21 01:51:23;;;;;;;8.43;6.93;;;;;;;22.25;100.00;97100.88;5044800;28;20210;-63
2023/08/21 01:53:50;;;;;;;9.07;7.35;;;;;;;22.23;100.00;97097.56;5043836;28;20210;-63
2023/08/21 01:56:17;;;;;;;8.48;7.20;;;;;;;22.23;100.00;97097.56;5043549;28;20207;-65
2023/08/21 01:58:45;;;;;;;7.95;7.00;;;;;;;22.28;100.00;97105.84;5042784;28;20211;-62
2023/08/21 02:01:11;;;;;;;8.50;7.70;;;;;;;22.28;100.00;97103.16;5043174;28;20623;-63
2023/08/21 02:03:38;;;;;;;9.13;7.10;;;;;;;22.26;100.00;97101.69;5043791;28;20235;-64
2023/08/21 02:06:04;;;;;;;8.13;7.53;;;;;;;22.24;100.00;97103.78;5044133;28;20202;-63
2023/08/21 02:08:32;;;;;;;9.40;7.72;;;;;;;22.20;100.00;97102.53;5043658;28;20212;-63
2023/08/21 02:10:59;;;;;;;8.13;7.32;;;;;;;22.17;100.00;97108.34;5043230;28;20352;-65
2023/08/21 02:13:25;;;;;;;8.93;7.57;;;;;;;22.06;100.00;97096.28;5043400;28;20207;-64
2023/08/21 02:15:53;;;;;;;8.48;7.40;;;;;;;22.09;100.00;97103.13;5043608;28;20199;-66
2023/08/21 02:18:19;;;;;;;9.18;8.20;;;;;;;22.05;100.00;97107.25;5043311;28;20541;-66
2023/08/21 02:20:47;;;;;;;7.72;7.00;;;;;;;22.06;100.00;97112.47;5044099;28;20526;-63
2023/08/21 02:23:14;;;;;;;8.27;7.43;;;;;;;22.06;100.00;97106.22;5043604;28;20199;-63
2023/08/21 02:25:41;;;;;;;8.20;7.57;;;;;;;22.01;100.00;97098.75;5043805;28;20207;-63
2023/08/21 02:28:08;;;;;;;9.18;7.72;;;;;;;21.98;100.00;97103.72;5042624;28;20216;-63
2023/08/21 02:30:34;;;;;;;8.57;7.80;;;;;;;21.97;100.00;97104.75;5043608;28;20564;-62
2023/08/21 02:33:02;;;;;;;8.95;8.05;;;;;;;21.98;100.00;97109.94;5043217;28;20200;-63
2023/08/21 02:35:29;;;;;;;7.97;7.15;;;;;;;21.96;100.00;97100.41;5042955;28;20207;-64
2023/08/21 02:37:55;;;;;;;8.50;7.63;;;;;;;21.94;100.00;97100.59;5043059;28;20736;-64
2023/08/21 02:40:21;;;;;;;7.97;7.30;;;;;;;21.89;100.00;97110.31;5043878;28;20233;-64
2023/08/21 02:42:48;;;;;;;11.73;8.07;;;;;;;21.90;100.00;97109.25;5042223;28;20207;-64
2023/08/21 02:45:15;;;;;;;8.25;7.50;;;;;;;21.86;100.00;97108.00;5043610;28;20210;-63
2023/08/21 02:47:42;;;;;;;7.90;7.15;;;;;;;21.83;100.00;97099.28;5042838;28;20226;-64
2023/08/21 02:50:11;;;;;;;8.32;7.60;;;;;;;21.80;100.00;97099.69;5041485;28;20678;-64
2023/08/21 02:52:37;;;;;;;8.63;7.93;;;;;;;21.78;100.00;97106.34;5043018;28;20208;-63
2023/08/21 02:55:05;;;;;;;9.00;8.10;;;;;;;21.78;100.00;97103.63;5043040;28;20198;-63
2023/08/21 02:57:31;;;;;;;8.95;8.13;;;;;;;21.73;100.00;97104.22;5042067;28;20306;-63
2023/08/21 02:59:58;;;;;;;8.93;7.80;;;;;;;21.72;100.00;97110.63;5044047;28;20203;-66
2023/08/21 03:02:24;;;;;;;8.73;7.93;;;;;;;21.73;100.00;97112.31;5044953;28;20642;-63
2023/08/21 03:04:51;;;;;;;11.60;8.10;;;;;;;21.71;100.00;97108.16;5047022;28;20242;-66
2023/08/21 03:07:19;;;;;;;8.88;7.95;;;;;;;21.70;100.00;97101.94;5043744;28;20709;-64
2023/08/21 03:09:46;;;;;;;8.90;8.10;;;;;;;21.69;100.00;97105.66;5042567;28;20675;-62
2023/08/21 03:12:13;;;;;;;9.05;8.10;;;;;;;21.68;100.00;97100.50;5042583;28;20199;-64
2023/08/21 03:14:40;;;;;;;12.15;8.45;;;;;;;21.68;100.00;97093.22;5044733;28;20208;-68
2023/08/21 03:17:06;;;;;;;8.60;7.80;;;;;;;21.67;100.00;97102.34;5044724;28;20207;-63
2023/08/21 03:19:32;;;;;;;9.55;8.55;;;;;;;21.67;100.00;97105.03;5049783;28;20225;-63
2023/08/21 03:21:59;;;;;;;8.85;8.07;;;;;;;21.66;100.00;97106.06;5054334;28;20206;-65
2023/08/21 03:24:27;;;;;;;9.25;8.35;;;;;;;21.64;100.00;97108.16;5051603;28;20204;-64
2023/08/21 03:26:53;;;;;;;9.25;8.45;;;;;;;21.61;100.00;97108.53;5047048;28;20211;-63
2023/08/21 03:29:20;;;;;;;8.32;7.53;;;;;;;21.61;100.00;97108.53;5047288;28;20203;-63
2023/08/21 03:31:48;;;;;;;8.95;8.15;;;;;;;21.61;100.00;97103.13;5042989;28;20559;-62
2023/08/21 03:34:15;;;;;;;9.52;8.50;;;;;;;21.56;100.00;97100.22;5044618;28;20218;-63
2023/08/21 03:36:41;;;;;;;9.20;8.18;;;;;;;21.54;100.00;97099.59;5042497;28;20207;-62
2023/08/21 03:39:08;;;;;;;8.73;7.95;;;;;;;21.56;100.00;97104.78;5042797;28;20219;-63
2023/08/21 03:41:37;;;;;;;9.82;8.18;;;;;;;21.53;100.00;97100.63;5042147;28;20203;-64
2023/08/21 03:44:04;;;;;;;8.55;7.72;;;;;;;21.52;100.00;97104.34;5041970;28;20199;-65
2023/08/21 03:46:30;;;;;;;8.88;8.07;;;;;;;21.52;100.00;97104.34;5042564;28;20204;-63
2023/08/21 03:48:57;;;;;;;9.38;8.07;;;;;;;21.55;100.00;97101.25;5042606;28;20200;-64
2023/08/21 03:51:23;;;;;;;8.57;7.68;;;;;;;21.50;100.00;97101.03;5042593;28;20227;-63
2023/08/21 03:53:50;;;;;;;9.35;8.40;;;;;;;21.48;100.00;97107.63;5041920;28;20203;-63
2023/08/21 03:56:18;;;;;;;8.32;7.63;;;;;;;21.48;100.00;97103.09;5042576;28;20215;-65
2023/08/21 03:58:48;;;;;;;10.25;8.23;;;;;;;21.43;100.00;97100.19;5041243;28;20264;-65
2023/08/21 04:01:16;;;;;;;11.45;8.13;;;;;;;21.43;100.00;97104.72;5041830;28;20235;-63
2023/08/21 04:03:43;;;;;;;9.60;8.52;;;;;;;21.38;100.00;97099.94;5041710;28;20267;-63
2023/08/21 04:06:11;;;;;;;8.93;8.05;;;;;;;21.40;100.00;97108.63;5041728;28;20208;-65
2023/08/21 04:08:38;;;;;;;9.35;8.30;;;;;;;21.37;100.00;97110.88;5041825;28;20898;-63
2023/08/21 04:11:05;;;;;;;9.25;8.40;;;;;;;21.37;100.00;97111.72;5040941;28;20226;-64
2023/08/21 04:13:32;;;;;;;8.55;7.75;;;;;;;21.35;100.00;97116.47;5042018;28;20195;-65
2023/08/21 04:16:00;;;;;;;9.48;8.57;;;;;;;21.34;100.00;97117.50;5043503;28;21359;-64
2023/08/21 04:18:26;;;;;;;10.55;7.88;;;;;;;21.29;100.00;97119.97;5040607;28;20203;-64
2023/08/21 04:20:53;;;;;;;9.32;8.32;;;;;;;21.31;100.00;97113.38;5041748;28;20199;-64
2023/08/21 04:23:19;;;;;;;10.63;8.73;;;;;;;21.33;100.00;97122.06;5041285;28;20211;-63
2023/08/21 04:25:46;;;;;;;10.18;8.98;;;;;;;21.30;100.00;97130.53;5041634;28;20205;-63
2023/08/21 04:28:12;;;;;;;9.32;8.48;;;;;;;21.30;100.00;97129.69;5041309;28;20238;-63
2023/08/21 04:30:42;;;;;;;9.50;8.55;;;;;;;21.29;100.00;97125.34;5041339;28;20226;-62
2023/08/21 04:33:09;;;;;;;9.95;8.93;;;;;;;21.25;100.00;97134.84;5041622;28;20204;-64
2023/08/21 04:35:39;;;;;;;9.10;8.20;;;;;;;21.23;100.00;97139.56;5043516;28;20200;-65
2023/08/21 04:38:07;;;;;;;9.70;8.70;;;;;;;21.24;100.00;97139.41;5041797;28;20235;-63
2023/08/21 04:40:34;;;;;;;10.00;9.15;;;;;;;21.23;100.00;97137.72;5041366;28;20289;-62
2023/08/21 04:43:00;;;;;;;10.23;8.50;;;;;;;21.25;100.00;97140.22;5041958;28;20199;-63
2023/08/21 04:45:26;;;;;;;9.40;8.60;;;;;;;21.20;100.00;97139.97;5040882;28;20643;-63
2023/08/21 04:47:53;;;;;;;10.00;8.70;;;;;;;21.22;100.00;97146.00;5041393;28;20527;-63
2023/08/21 04:50:21;;;;;;;9.43;8.43;;;;;;;21.25;100.00;97141.06;5041244;28;20552;-64
2023/08/21 04:52:48;;;;;;;9.50;8.65;;;;;;;21.30;100.00;97140.44;5040519;28;20208;-63
2023/08/21 04:55:27;;;;;;;10.90;8.57;;;;;;;21.31;100.00;97148.34;5051854;28;20203;-64
2023/08/21 04:58:13;;;;;;;9.38;8.60;;;;;;;21.31;100.00;97147.50;5050382;28;20207;-61
2023/08/21 05:00:40;;;;;;;10.07;9.15;;;;;;;21.33;100.00;97148.97;5041150;28;20222;-63
2023/08/21 05:03:08;;;;;;;9.52;8.68;;;;;;;21.38;100.00;97148.38;5041660;28;20253;-62
2023/08/21 05:05:38;;;;;;;10.50;8.98;;;;;;;21.43;100.00;97158.53;5041048;28;20215;-63
2023/08/21 05:08:06;;;;;;;9.13;8.32;;;;;;;21.48;100.00;97156.91;5041015;28;20208;-63
2023/08/21 05:10:32;;;;;;;10.00;9.00;;;;;;;21.49;100.00;97163.97;5040101;28;20224;-63
2023/08/21 05:12:59;;;;;;;9.77;8.82;;;;;;;21.54;100.00;97164.19;5041406;28;20203;-62
2023/08/21 05:15:26;;;;;;;9.88;8.98;;;;;;;21.59;100.00;97168.97;5044637;28;20207;-63
2023/08/21 05:17:52;;;;;;;9.43;8.60;;;;;;;21.65;100.00;97168.16;5044196;28;20211;-63
2023/08/21 05:20:19;;;;;;;9.88;8.85;;;;;;;21.68;100.00;97173.97;5044342;28;21533;-62
2023/08/21 05:22:47;;;;;;;9.40;8.60;;;;;;;21.76;100.00;97167.59;5044853;28;20203;-63
2023/08/21 05:25:14;;;;;;;10.02;9.02;;;;;;;21.76;100.00;97165.75;5044610;28;20220;-63
2023/08/21 05:27:41;;;;;;;9.55;8.65;;;;;;;21.79;100.00;97159.97;5044590;28;20195;-63
2023/08/21 05:30:10;;;;;;;9.48;8.63;;;;;;;21.85;100.00;97163.72;5044914;28;20206;-62
2023/08/21 05:32:36;;;;;;;9.88;9.07;;;;;;;21.89;100.00;97169.53;5045745;28;20214;-67
2023/08/21 05:35:04;;;;;;;9.77;8.98;;;;;;;21.94;100.00;97175.16;5045867;28;20648;-63
2023/08/21 05:37:31;;;;;;;10.65;9.63;;;;;;;21.99;100.00;97175.41;5044853;28;20204;-66
2023/08/21 05:39:59;;;;;;;9.75;8.93;;;;;;;22.13;100.00;97177.97;5044323;28;20221;-65
2023/08/21 05:42:28;;;;;;;10.63;8.77;;;;;;;22.33;100.00;97175.31;5043910;28;20558;-64
2023/08/21 05:44:54;;;;;;;9.38;8.57;;;;;;;22.62;100.00;97177.66;5044564;28;20211;-63
2023/08/21 05:47:21;;;;;;;10.00;9.02;;;;;;;22.93;100.00;97178.94;5044554;28;20204;-64
2023/08/21 05:49:48;;;;;;;10.18;8.50;;;;;;;23.18;100.00;97179.97;5043723;28;20295;-65
2023/08/21 05:52:15;;;;;;;9.93;8.90;;;;;;;23.45;100.00;97189.75;5044449;28;20561;-64
2023/08/21 05:54:44;;;;;;;9.05;8.25;;;;;;;23.75;100.00;97184.66;5044313;28;20218;-64
2023/08/21 05:57:12;;;;;;;10.38;9.30;;;;;;;24.09;100.00;97186.22;5043995;28;20224;-62
2023/08/21 05:59:44;;;;;;;12.18;9.43;;;;;;;24.39;100.00;97187.31;5043959;28;20203;-64
2023/08/21 06:02:10;;;;;;;9.45;8.65;;;;;;;24.65;100.00;97189.88;5043753;28;20200;-62
2023/08/21 06:04:40;;;;;;;9.80;8.77;;;;;;;24.89;100.00;97187.44;5043162;28;20243;-63
2023/08/21 06:07:06;;;;;;;9.38;8.43;;;;;;;25.08;100.00;97187.28;5043727;28;20218;-63
2023/08/21 06:09:34;;;;;;;10.45;9.20;;;;;;;25.27;100.00;97185.47;5043589;28;20204;-64
2023/08/21 06:12:01;;;;;;;12.60;9.25;;;;;;;25.35;100.00;97187.06;5042893;28;20223;-62
2023/08/21 06:14:29;;;;;;;9.95;8.98;;;;;;;25.49;100.00;97188.59;5043598;28;20207;-65
2023/08/21 06:16:57;;;;;;;11.07;8.80;;;;;;;25.78;100.00;97192.47;5042777;28;20218;-63
2023/08/21 06:19:25;;;;;;;8.88;8.05;;;;;;;26.06;100.00;97192.78;5043963;28;20199;-63
2023/08/21 06:21:51;;;;;;;10.65;8.98;;;;;;;26.20;100.00;97197.03;5042829;28;20204;-64
2023/08/21 06:24:17;;;;;;;10.32;8.20;;;;;;;26.45;100.00;97199.59;5043243;28;20211;-64
2023/08/21 06:26:45;;;;;;;11.63;8.05;;;;;;;26.63;99.28;97208.53;5043315;28;20203;-64
2023/08/21 06:29:12;;;;;;;10.48;8.68;;;;;;;26.86;96.95;97206.97;5043812;28;20214;-63
2023/08/21 06:31:40;;;;;;;9.07;8.20;;;;;;;27.07;96.03;97204.53;5042481;28;20223;-63
2023/08/21 06:34:06;;;;;;;9.98;8.23;;;;;;;27.10;94.71;97205.97;5043683;28;20204;-63
2023/08/21 06:36:33;;;;;;;9.18;7.70;;;;;;;27.13;92.80;97208.22;5042842;28;20212;-64
2023/08/21 06:38:59;;;;;;;11.45;8.05;;;;;;;27.20;91.91;97204.34;5043485;28;20222;-64
2023/08/21 06:41:26;;;;;;;8.73;7.93;;;;;;;27.33;90.05;97206.00;5042862;28;20535;-65
2023/08/21 06:43:52;;;;;;;9.00;7.25;;;;;;;27.47;90.78;97207.47;5043045;28;20199;-63
2023/08/21 06:46:19;;;;;;;10.25;8.13;;;;;;;27.72;88.83;97212.66;5042738;28;20208;-64
2023/08/21 06:48:46;;;;;;;8.50;7.40;;;;;;;27.83;89.36;97211.81;5042958;28;20207;-64
2023/08/21 06:51:13;;;;;;;7.93;7.18;;;;;;;27.66;89.27;97200.84;5043406;28;20219;-64
2023/08/21 06:53:39;;;;;;;8.13;7.35;;;;;;;27.88;88.10;97219.25;5042564;28;20208;-64
2023/08/21 06:56:06;;;;;;;8.48;7.70;;;;;;;27.86;87.70;97214.06;5042951;28;20561;-65
2023/08/21 06:58:32;;;;;;;11.50;7.40;;;;;;;27.98;87.13;97212.16;5041760;28;20662;-64
2023/08/21 07:00:59;;;;;;;9.00;7.80;;;;;;;28.06;83.52;97219.09;5042991;28;20200;-64
2023/08/21 07:03:25;;;;;;;10.40;7.78;;;;;;;28.19;84.29;97224.31;5042511;28;20211;-68
2023/08/21 07:05:57;;;;;;;8.80;7.88;;;;;;;28.30;84.21;97209.03;5044156;28;20208;-66
2023/08/21 07:08:23;;;;;;;9.10;7.78;;;;;;;28.55;83.24;97213.09;5043274;28;20207;-63
2023/08/21 07:10:50;;;;;;;11.18;8.10;;;;;;;28.70;83.54;97219.94;5042503;28;20224;-64
2023/08/21 07:13:16;;;;;;;8.90;8.07;;;;;;;28.87;82.81;97220.78;5041916;28;20208;-65
2023/08/21 07:15:43;;;;;;;11.55;8.00;;;;;;;28.91;81.19;97216.50;5043097;28;20206;-64
2023/08/21 07:18:09;;;;;;;8.65;7.70;;;;;;;29.15;81.45;97212.56;5043272;28;20207;-63
2023/08/21 07:20:36;;;;;;;10.95;8.23;;;;;;;29.14;81.82;97213.63;5042643;28;20203;-65
2023/08/21 07:23:04;;;;;;;15.93;8.50;;;;;;;29.16;79.66;97214.19;5042425;28;20289;-62
2023/08/21 07:25:30;;;;;;;10.38;7.95;;;;;;;29.29;79.05;97210.38;5042632;28;20203;-64
2023/08/21 07:27:58;;;;;;;10.20;8.30;;;;;;;29.54;79.24;97217.06;5042644;28;20214;-65
2023/08/21 07:30:25;;;;;;;8.65;7.72;;;;;;;29.68;77.20;97213.97;5043404;28;20294;-64
2023/08/21 07:32:53;;;;;;;10.52;7.90;;;;;;;29.80;76.96;97214.69;5041969;28;20679;-64
2023/08/21 07:35:21;;;;;;;10.73;7.93;;;;;;;29.74;73.93;97219.25;5041708;28;20207;-64
2023/08/21 07:37:48;;;;;;;10.18;7.65;;;;;;;29.77;74.77;97210.56;5041434;28;20263;-64
2023/08/21 07:40:17;;;;;;;9.18;7.60;;;;;;;29.91;73.34;97216.50;5043025;28;20211;-63
2023/08/21 07:42:43;;;;;;;10.07;7.50;;;;;;;30.00;72.06;97215.03;5048497;28;20203;-65
2023/08/21 07:45:11;;;;;;;9.50;7.88;;;;;;;29.82;72.04;97218.84;5047930;28;20218;-65
2023/08/21 07:47:37;;;;;;;10.30;8.23;;;;;;;29.89;70.53;97214.06;5045783;28;20203;-64
2023/08/21 07:50:05;;;;;;;11.02;7.80;;;;;;;30.18;73.27;97217.44;5043257;28;20218;-64
2023/08/21 07:52:31;;;;;;;7.80;7.20;;;;;;;30.17;70.91;97215.78;5043929;28;20319;-63
2023/08/21 07:54:59;;;;;;;9.65;7.85;;;;;;;30.27;73.78;97215.91;5042815;28;20284;-65
2023/08/21 07:57:26;;;;;;;12.10;7.70;;;;;;;30.57;73.97;97210.84;5043464;28;20207;-64
2023/08/21 07:59:53;;;;;;;8.48;7.47;;;;;;;30.44;70.21;97213.97;5043540;28;20208;-62
2023/08/21 08:02:19;;;;;;;13.40;7.80;;;;;;;30.71;69.48;97207.72;5042523;28;20207;-64
2023/08/21 08:04:46;;;;;;;9.32;7.10;;;;;;;30.80;73.29;97204.25;5042412;28;20546;-64
2023/08/21 08:07:13;;;;;;;8.52;7.55;;;;;;;30.81;71.58;97202.38;5042082;28;20207;-65
2023/08/21 08:09:39;;;;;;;8.57;7.53;;;;;;;30.88;70.83;97200.25;5043239;28;20214;-63
2023/08/21 08:12:07;;;;;;;10.77;7.63;;;;;;;31.02;71.63;97202.34;5042675;28;20242;-64
2023/08/21 08:14:36;;;;;;;8.65;7.75;;;;;;;30.93;70.04;97206.56;5041914;28;20235;-65
2023/08/21 08:17:03;;;;;;;8.55;7.63;;;;;;;30.75;71.01;97204.19;5042156;28;20199;-63
2023/08/21 08:19:29;;;;;;;13.75;7.40;;;;;;;31.18;71.34;97207.94;5041606;28;20706;-63
2023/08/21 08:21:56;;;;;;;11.05;7.55;;;;;;;31.14;68.41;97198.63;5042282;28;20207;-64
2023/08/21 08:24:22;;;;;;;10.52;7.78;;;;;;;31.21;68.34;97205.53;5041977;28;20647;-66
2023/08/21 08:26:49;;;;;;;9.68;7.63;;;;;;;31.27;70.87;97204.47;5042384;28;20211;-63
2023/08/21 08:29:15;;;;;;;9.40;7.93;;;;;;;31.13;67.83;97206.00;5041996;28;20231;-64
2023/08/21 08:31:45;;;;;;;10.13;7.20;;;;;;;31.41;66.44;97213.88;5042237;28;20242;-64
2023/08/21 08:34:12;;;;;;;8.50;7.70;;;;;;;31.36;65.80;97208.34;5041509;28;20225;-66
2023/08/21 08:36:41;;;;;;;12.40;7.45;;;;;;;31.57;68.65;97203.88;5040919;28;20532;-65
2023/08/21 08:39:07;;;;;;;7.47;6.88;;;;;;;31.67;69.55;97198.50;5041226;28;20204;-64
2023/08/21 08:41:39;;;;;;;7.72;6.95;;;;;;;31.62;65.64;97201.22;5041654;28;20200;-65
2023/08/21 08:44:08;;;;;;;8.55;7.68;;;;;;;31.40;67.25;97197.72;5040850;28;20739;-64
2023/08/21 08:46:35;;;;;;;9.55;8.35;;;;;;;31.58;68.90;97198.19;5041601;28;20204;-64
2023/08/21 08:49:03;;;;;;;8.93;7.72;;;;;;;31.47;68.96;97201.88;5040085;28;20583;-63
2023/08/21 08:51:29;;;;;;;10.75;7.70;;;;;;;31.58;69.64;97195.44;5040738;28;20687;-64
2023/08/21 08:53:57;;;;;;;10.45;7.35;;;;;;;31.89;68.88;97201.09;5041582;28;20208;-65
2023/08/21 08:56:23;;;;;;;8.25;7.45;;;;;;;31.75;66.94;97199.91;5041643;28;20210;-65
2023/08/21 08:58:50;;;;;;;10.40;8.00;;;;;;;31.89;67.32;97195.63;5041313;28;20218;-63
2023/08/21 09:01:16;;;;;;;9.10;8.20;;;;;;;31.78;65.39;97191.19;5040650;28;20203;-65
2023/08/21 09:03:43;;;;;;;11.82;8.07;;;;;;;31.85;66.11;97194.53;5040363;28;20338;-64
2023/08/21 09:06:11;;;;;;;9.35;8.30;;;;;;;31.98;66.49;97188.56;5040596;28;20206;-64
2023/08/21 09:08:37;;;;;;;8.85;7.82;;;;;;;32.11;68.31;97199.06;5039955;28;20672;-65
2023/08/21 09:11:04;;;;;;;8.70;7.60;;;;;;;32.22;65.39;97188.97;5040811;28;20554;-64
2023/08/21 09:13:32;;;;;;;11.65;7.75;;;;;;;32.67;67.15;97191.06;5041212;28;20289;-62
2023/08/21 09:15:59;;;;;;;8.73;7.85;;;;;;;32.78;63.05;97188.09;5040933;28;20218;-63
2023/08/21 09:18:26;;;;;;;8.32;7.45;;;;;;;32.91;66.33;97189.50;5040898;28;20202;-63
2023/08/21 09:20:52;;;;;;;11.55;7.88;;;;;;;32.75;65.08;97182.34;5041027;28;20202;-63
2023/08/21 09:23:20;;;;;;;13.18;7.10;;;;;;;32.92;64.40;97185.63;5040120;28;20195;-65
2023/08/21 09:25:47;;;;;;;10.25;7.47;;;;;;;33.07;64.87;97182.94;5039897;28;20208;-65
2023/08/21 09:28:14;;;;;;;9.82;8.30;;;;;;;33.06;62.48;97178.53;5039704;28;20270;-63
2023/08/21 09:30:46;;;;;;;8.50;7.70;;;;;;;33.42;64.47;97171.16;5040678;28;20220;-62
2023/08/21 09:33:12;;;;;;;9.57;8.07;;;;;;;33.18;61.22;97181.88;5040721;28;20231;-64
2023/08/21 09:35:41;;;;;;;8.85;8.00;;;;;;;33.25;62.47;97179.69;5040689;28;20628;-65
2023/08/21 09:38:09;;;;;;;9.20;8.30;;;;;;;33.27;61.93;97171.97;5040653;28;20208;-63
2023/08/21 09:40:40;;;;;;;9.00;8.10;;;;;;;33.30;61.06;97163.22;5042064;28;20204;-65
2023/08/21 09:43:06;;;;;;;10.95;8.07;;;;;;;33.35;61.41;97171.44;5042047;28;20515;-63
2023/08/21 09:45:34;;;;;;;9.50;8.15;;;;;;;33.11;59.96;97158.56;5043423;28;20204;-65
2023/08/21 09:48:01;;;;;;;8.38;7.60;;;;;;;33.14;62.30;97158.00;5041551;28;20226;-65
2023/08/21 09:50:29;;;;;;;8.70;7.85;;;;;;;33.26;60.99;97161.31;5042616;28;20200;-64
2023/08/21 09:52:57;;;;;;;8.77;7.88;;;;;;;32.93;61.14;97157.97;5041309;28;20547;-64
2023/08/21 09:55:26;;;;;;;10.15;8.00;;;;;;;33.19;62.34;97161.59;5040998;28;20225;-63
2023/08/21 09:57:58;;;;;;;10.13;7.80;;;;;;;33.31;63.32;97153.88;5040200;28;20730;-63
2023/08/21 10:00:25;;;;;;;9.93;8.18;;;;;;;33.07;60.70;97163.75;5043595;28;20620;-65
2023/08/21 10:02:52;;;;;;;10.93;7.35;;;;;;;33.11;63.00;97148.44;5045166;28;20192;-63
2023/08/21 10:05:19;;;;;;;9.27;7.82;;;;;;;33.30;63.82;97154.97;5044077;28;20235;-63
2023/08/21 10:07:48;;;;;;;9.98;8.18;;;;;;;33.34;62.67;97147.03;5046169;28;20218;-66
2023/08/21 10:10:15;;;;;;;11.23;7.75;;;;;;;33.46;63.28;97145.66;5044039;28;20210;-64
2023/08/21 10:12:42;;;;;;;9.60;8.70;;;;;;;33.50;60.46;97149.50;5043477;28;20555;-64
2023/08/21 10:15:10;;;;;;;9.18;7.88;;;;;;;33.29;62.28;97152.53;5043653;28;20558;-66
2023/08/21 10:17:37;;;;;;;10.32;7.78;;;;;;;33.42;61.71;97152.78;5043972;28;20215;-64
2023/08/21 10:20:04;;;;;;;8.25;7.50;;;;;;;33.61;61.36;97141.25;5044032;28;20211;-64
2023/08/21 10:22:39;;;;;;;8.48;6.97;;;;;;;33.98;61.83;97147.19;5044837;28;20195;-63
2023/08/21 10:25:15;;;;;;;10.07;7.50;;;;;;;34.00;59.40;97150.50;5043396;28;20207;-65
2023/08/21 10:27:41;;;;;;;7.97;7.18;;;;;;;33.93;59.60;97139.00;5043065;28;20294;-64
2023/08/21 10:30:14;;;;;;;8.70;7.30;;;;;;;34.01;61.07;97141.97;5043759;28;20207;-63
2023/08/21 10:32:45;;;;;;;9.25;7.18;;;;;;;34.11;58.45;97141.13;5043325;28;20273;-64
2023/08/21 10:35:15;;;;;;;8.73;6.82;;;;;;;34.16;57.92;97132.06;5043902;28;20238;-64
2023/08/21 10:38:06;;;;;;;7.80;6.80;;;;;;;34.18;56.94;97141.69;5043121;28;20228;-65
2023/08/21 10:40:33;;;;;;;11.32;7.32;;;;;;;33.88;55.76;97130.75;5043571;28;20205;-64
2023/08/21 10:43:00;;;;;;;6.85;6.30;;;;;;;33.83;56.23;97134.38;5042364;28;20199;-64
2023/08/21 10:45:28;;;;;;;7.57;6.07;;;;;;;34.29;57.07;97125.97;5044509;28;20298;-66
2023/08/21 10:47:58;;;;;;;7.28;6.35;;;;;;;34.31;54.32;97132.81;5042752;28;20217;-64
2023/08/21 10:50:24;;;;;;;7.57;6.22;;;;;;;34.45;57.44;97128.34;5042753;28;20223;-64
2023/08/21 10:52:53;;;;;;;6.95;6.22;;;;;;;34.29;55.62;97126.81;5043940;28;20228;-64
2023/08/21 10:55:19;;;;;;;7.45;6.22;;;;;;;34.56;55.79;97131.84;5046778;28;20203;-66
2023/08/21 10:57:47;;;;;;;8.95;6.47;;;;;;;34.52;54.85;97124.44;5046898;28;20218;-65
2023/08/21 11:00:15;;;;;;;6.93;6.32;;;;;;;34.39;52.80;97120.41;5045239;28;20620;-66
2023/08/21 11:02:44;;;;;;;8.77;6.43;;;;;;;34.51;52.97;97126.38;5046082;28;20207;-64
2023/08/21 11:05:11;;;;;;;7.05;6.43;;;;;;;34.64;53.29;97125.78;5046067;28;20231;-64
2023/08/21 11:07:39;;;;;;;8.60;6.97;;;;;;;34.93;52.37;97118.41;5045877;28;20207;-64
2023/08/21 11:10:08;;;;;;;7.97;7.18;;;;;;;34.99;52.75;97116.47;5044878;28;20222;-66
2023/08/21 11:12:34;;;;;;;8.45;6.32;;;;;;;35.06;50.45;97116.94;5041442;28;20274;-65
2023/08/21 11:15:00;;;;;;;7.93;6.70;;;;;;;34.89;51.82;97114.63;5049705;28;20205;-67
2023/08/21 11:17:27;;;;;;;7.05;5.72;;;;;;;35.15;50.49;97117.16;5047205;28;20211;-65
2023/08/21 11:19:55;;;;;;;8.32;6.68;;;;;;;35.07;51.34;97115.84;5042293;28;20307;-68
2023/08/21 11:22:21;;;;;;;6.80;6.30;;;;;;;35.26;53.81;97111.28;5041907;28;20219;-67
2023/08/21 11:24:49;;;;;;;7.50;6.78;;;;;;;35.29;52.68;97118.97;5042820;28;20218;-66
2023/08/21 11:27:16;;;;;;;9.73;6.60;;;;;;;35.25;50.81;97117.09;5042835;28;20207;-65